sensor_id;sensor_type;location;lat;lon;timestamp;P1;durP1;ratioP1;P2;durP2;ratioP2
40967;SDS011;57377;45.130;6.038;2022-09-09T00:01:01;1.73;;;0.80;;
40967;SDS011;57377;45.130;6.038;2022-09-09T00:03:40;5.97;;;0.73;;
40967;SDS011;57377;45.130;6.038;2022-09-09T00:06:42;0.85;;;0.68;;
40967;SDS011;57377;45.130;6.038;2022-09-09T00:09:14;3.75;;;0.55;;
40967;SDS011;57377;45.130;6.038;2022-09-09T00:11:49;1.88;;;0.60;;
40967;SDS011;57377;45.130;6.038;2022-09-09T00:16:49;1.05;;;0.65;;
40967;SDS011;57377;45.130;6.038;2022-09-09T00:19:22;3.63;;;0.85;;
40967;SDS011;57377;45.130;6.038;2022-09-09T00:24:52;1.95;;;0.75;;
40967;SDS011;57377;45.130;6.038;2022-09-09T00:27:21;0.52;;;0.52;;
40967;SDS011;57377;45.130;6.038;2022-09-09T00:29:58;1.48;;;0.50;;
40967;SDS011;57377;45.130;6.038;2022-09-09T00:32:28;8.77;;;0.73;;
40967;SDS011;57377;45.130;6.038;2022-09-09T00:35:00;6.82;;;0.70;;
40967;SDS011;57377;45.130;6.038;2022-09-09T00:37:28;2.00;;;0.80;;
40967;SDS011;57377;45.130;6.038;2022-09-09T00:39:57;0.80;;;0.60;;
40967;SDS011;57377;45.130;6.038;2022-09-09T00:42:42;1.08;;;0.70;;
40967;SDS011;57377;45.130;6.038;2022-09-09T00:45:24;1.02;;;0.68;;
40967;SDS011;57377;45.130;6.038;2022-09-09T00:47:53;4.25;;;0.90;;
40967;SDS011;57377;45.130;6.038;2022-09-09T00:58:32;1.48;;;0.70;;
40967;SDS011;57377;45.130;6.038;2022-09-09T01:01:11;4.00;;;0.63;;
40967;SDS011;57377;45.130;6.038;2022-09-09T01:03:39;1.92;;;0.70;;
40967;SDS011;57377;45.130;6.038;2022-09-09T01:06:15;0.90;;;0.60;;
40967;SDS011;57377;45.130;6.038;2022-09-09T01:14:16;2.08;;;0.65;;
40967;SDS011;57377;45.130;6.038;2022-09-09T01:27:32;1.92;;;0.80;;
40967;SDS011;57377;45.130;6.038;2022-09-09T01:29:59;3.05;;;0.63;;
40967;SDS011;57377;45.130;6.038;2022-09-09T01:32:39;2.90;;;0.80;;
40967;SDS011;57377;45.130;6.038;2022-09-09T01:35:29;7.53;;;0.65;;
40967;SDS011;57377;45.130;6.038;2022-09-09T01:38:02;3.15;;;0.80;;
40967;SDS011;57377;45.130;6.038;2022-09-09T01:40:28;5.72;;;1.13;;
40967;SDS011;57377;45.130;6.038;2022-09-09T01:42:54;4.10;;;0.82;;
40967;SDS011;57377;45.130;6.038;2022-09-09T01:45:20;4.93;;;0.80;;
40967;SDS011;57377;45.130;6.038;2022-09-09T01:47:47;2.70;;;1.88;;
40967;SDS011;57377;45.130;6.038;2022-09-09T01:50:13;1.23;;;0.90;;
40967;SDS011;57377;45.130;6.038;2022-09-09T01:52:41;4.25;;;1.00;;
40967;SDS011;57377;45.130;6.038;2022-09-09T01:57:39;3.70;;;0.70;;
40967;SDS011;57377;45.130;6.038;2022-09-09T02:00:22;1.27;;;0.75;;
40967;SDS011;57377;45.130;6.038;2022-09-09T02:03:07;6.50;;;0.70;;
40967;SDS011;57377;45.130;6.038;2022-09-09T02:05:40;0.95;;;0.57;;
40967;SDS011;57377;45.130;6.038;2022-09-09T02:08:20;3.05;;;0.60;;
40967;SDS011;57377;45.130;6.038;2022-09-09T02:13:35;3.30;;;0.90;;
40967;SDS011;57377;45.130;6.038;2022-09-09T02:21:30;1.60;;;0.80;;
40967;SDS011;57377;45.130;6.038;2022-09-09T02:23:56;2.67;;;1.02;;
40967;SDS011;57377;45.130;6.038;2022-09-09T02:26:25;6.63;;;0.80;;
40967;SDS011;57377;45.130;6.038;2022-09-09T02:28:52;1.70;;;0.68;;
40967;SDS011;57377;45.130;6.038;2022-09-09T02:31:21;2.03;;;0.70;;
40967;SDS011;57377;45.130;6.038;2022-09-09T02:33:49;8.77;;;0.90;;
40967;SDS011;57377;45.130;6.038;2022-09-09T02:36:18;10.05;;;1.00;;
40967;SDS011;57377;45.130;6.038;2022-09-09T02:38:47;4.22;;;0.90;;
40967;SDS011;57377;45.130;6.038;2022-09-09T02:41:16;2.10;;;0.80;;
40967;SDS011;57377;45.130;6.038;2022-09-09T02:43:52;0.85;;;0.60;;
40967;SDS011;57377;45.130;6.038;2022-09-09T02:49:00;2.88;;;0.75;;
40967;SDS011;57377;45.130;6.038;2022-09-09T02:51:45;1.98;;;0.95;;
40967;SDS011;57377;45.130;6.038;2022-09-09T02:54:40;0.95;;;0.73;;
40967;SDS011;57377;45.130;6.038;2022-09-09T02:59:56;1.77;;;0.80;;
40967;SDS011;57377;45.130;6.038;2022-09-09T03:02:23;1.70;;;0.68;;
40967;SDS011;57377;45.130;6.038;2022-09-09T03:04:50;2.03;;;0.80;;
40967;SDS011;57377;45.130;6.038;2022-09-09T03:07:17;0.90;;;0.60;;
40967;SDS011;57377;45.130;6.038;2022-09-09T03:09:43;2.67;;;0.90;;
40967;SDS011;57377;45.130;6.038;2022-09-09T03:12:09;1.35;;;0.77;;
40967;SDS011;57377;45.130;6.038;2022-09-09T03:14:36;1.00;;;0.60;;
40967;SDS011;57377;45.130;6.038;2022-09-09T03:17:03;4.32;;;0.70;;
40967;SDS011;57377;45.130;6.038;2022-09-09T03:19:29;2.33;;;0.70;;
40967;SDS011;57377;45.130;6.038;2022-09-09T03:21:55;2.22;;;0.80;;
40967;SDS011;57377;45.130;6.038;2022-09-09T03:24:20;1.10;;;0.70;;
40967;SDS011;57377;45.130;6.038;2022-09-09T03:26:47;2.05;;;0.70;;
40967;SDS011;57377;45.130;6.038;2022-09-09T03:29:15;0.82;;;0.70;;
40967;SDS011;57377;45.130;6.038;2022-09-09T03:31:44;4.13;;;0.95;;
40967;SDS011;57377;45.130;6.038;2022-09-09T03:34:10;8.00;;;0.90;;
40967;SDS011;57377;45.130;6.038;2022-09-09T03:36:36;1.98;;;0.70;;
40967;SDS011;57377;45.130;6.038;2022-09-09T03:39:02;4.22;;;0.90;;
40967;SDS011;57377;45.130;6.038;2022-09-09T03:41:28;3.28;;;1.00;;
40967;SDS011;57377;45.130;6.038;2022-09-09T03:43:54;1.58;;;0.70;;
40967;SDS011;57377;45.130;6.038;2022-09-09T03:46:20;1.40;;;0.80;;
40967;SDS011;57377;45.130;6.038;2022-09-09T03:48:46;3.30;;;0.90;;
40967;SDS011;57377;45.130;6.038;2022-09-09T03:51:21;1.27;;;0.63;;
40967;SDS011;57377;45.130;6.038;2022-09-09T03:54:29;1.10;;;0.68;;
40967;SDS011;57377;45.130;6.038;2022-09-09T03:57:11;6.10;;;0.70;;
40967;SDS011;57377;45.130;6.038;2022-09-09T03:59:47;1.90;;;0.80;;
40967;SDS011;57377;45.130;6.038;2022-09-09T04:02:32;6.05;;;0.80;;
40967;SDS011;57377;45.130;6.038;2022-09-09T04:04:58;3.13;;;0.70;;
40967;SDS011;57377;45.130;6.038;2022-09-09T04:07:31;2.58;;;0.95;;
40967;SDS011;57377;45.130;6.038;2022-09-09T04:10:10;1.90;;;0.90;;
40967;SDS011;57377;45.130;6.038;2022-09-09T04:12:41;2.25;;;1.10;;
40967;SDS011;57377;45.130;6.038;2022-09-09T04:15:38;1.80;;;0.70;;
40967;SDS011;57377;45.130;6.038;2022-09-09T04:18:24;9.15;;;1.00;;
40967;SDS011;57377;45.130;6.038;2022-09-09T04:21:20;6.43;;;0.88;;
40967;SDS011;57377;45.130;6.038;2022-09-09T04:27:07;1.20;;;0.75;;
40967;SDS011;57377;45.130;6.038;2022-09-09T04:29:32;7.43;;;1.10;;
40967;SDS011;57377;45.130;6.038;2022-09-09T04:31:58;1.10;;;0.65;;
40967;SDS011;57377;45.130;6.038;2022-09-09T04:34:26;2.05;;;1.05;;
40967;SDS011;57377;45.130;6.038;2022-09-09T04:36:51;3.38;;;0.95;;
40967;SDS011;57377;45.130;6.038;2022-09-09T04:39:17;6.03;;;0.80;;
40967;SDS011;57377;45.130;6.038;2022-09-09T04:45:13;0.50;;;0.50;;
40967;SDS011;57377;45.130;6.038;2022-09-09T04:47:39;4.38;;;0.80;;
40967;SDS011;57377;45.130;6.038;2022-09-09T04:50:05;5.57;;;1.38;;
40967;SDS011;57377;45.130;6.038;2022-09-09T04:52:30;1.30;;;0.80;;
40967;SDS011;57377;45.130;6.038;2022-09-09T04:54:56;4.38;;;0.70;;
40967;SDS011;57377;45.130;6.038;2022-09-09T04:57:22;1.52;;;0.73;;
40967;SDS011;57377;45.130;6.038;2022-09-09T04:59:47;4.53;;;0.60;;
40967;SDS011;57377;45.130;6.038;2022-09-09T05:02:13;2.47;;;0.80;;
40967;SDS011;57377;45.130;6.038;2022-09-09T05:04:38;1.15;;;0.80;;
40967;SDS011;57377;45.130;6.038;2022-09-09T05:07:03;0.82;;;0.70;;
40967;SDS011;57377;45.130;6.038;2022-09-09T05:09:29;1.48;;;0.95;;
40967;SDS011;57377;45.130;6.038;2022-09-09T05:11:55;0.80;;;0.57;;
40967;SDS011;57377;45.130;6.038;2022-09-09T05:14:21;1.92;;;0.68;;
40967;SDS011;57377;45.130;6.038;2022-09-09T05:16:46;1.00;;;0.80;;
40967;SDS011;57377;45.130;6.038;2022-09-09T05:19:12;1.00;;;0.88;;
40967;SDS011;57377;45.130;6.038;2022-09-09T05:21:38;2.20;;;0.80;;
40967;SDS011;57377;45.130;6.038;2022-09-09T05:24:03;2.53;;;1.00;;
40967;SDS011;57377;45.130;6.038;2022-09-09T05:26:29;3.13;;;0.95;;
40967;SDS011;57377;45.130;6.038;2022-09-09T05:28:54;3.53;;;0.75;;
40967;SDS011;57377;45.130;6.038;2022-09-09T05:31:20;2.25;;;1.08;;
40967;SDS011;57377;45.130;6.038;2022-09-09T05:33:46;1.20;;;0.50;;
40967;SDS011;57377;45.130;6.038;2022-09-09T05:36:14;0.90;;;0.80;;
40967;SDS011;57377;45.130;6.038;2022-09-09T05:38:44;1.33;;;0.65;;
40967;SDS011;57377;45.130;6.038;2022-09-09T05:41:10;1.75;;;1.08;;
40967;SDS011;57377;45.130;6.038;2022-09-09T05:43:37;1.07;;;0.80;;
40967;SDS011;57377;45.130;6.038;2022-09-09T05:46:04;2.03;;;0.52;;
40967;SDS011;57377;45.130;6.038;2022-09-09T05:48:31;2.72;;;0.80;;
40967;SDS011;57377;45.130;6.038;2022-09-09T05:50:58;4.68;;;0.98;;
40967;SDS011;57377;45.130;6.038;2022-09-09T05:53:24;0.80;;;0.65;;
40967;SDS011;57377;45.130;6.038;2022-09-09T05:55:50;3.15;;;0.93;;
40967;SDS011;57377;45.130;6.038;2022-09-09T05:58:15;0.90;;;0.80;;
40967;SDS011;57377;45.130;6.038;2022-09-09T06:00:42;2.92;;;0.65;;
40967;SDS011;57377;45.130;6.038;2022-09-09T06:03:09;0.90;;;0.80;;
40967;SDS011;57377;45.130;6.038;2022-09-09T06:05:36;3.70;;;0.80;;
40967;SDS011;57377;45.130;6.038;2022-09-09T06:08:01;2.45;;;0.73;;
40967;SDS011;57377;45.130;6.038;2022-09-09T06:10:26;3.03;;;0.75;;
40967;SDS011;57377;45.130;6.038;2022-09-09T06:12:53;2.92;;;0.73;;
40967;SDS011;57377;45.130;6.038;2022-09-09T06:15:18;2.10;;;0.80;;
40967;SDS011;57377;45.130;6.038;2022-09-09T06:17:43;6.50;;;0.80;;
40967;SDS011;57377;45.130;6.038;2022-09-09T06:20:10;2.33;;;0.80;;
40967;SDS011;57377;45.130;6.038;2022-09-09T06:22:36;1.73;;;1.15;;
40967;SDS011;57377;45.130;6.038;2022-09-09T06:25:04;3.28;;;0.90;;
40967;SDS011;57377;45.130;6.038;2022-09-09T06:27:29;5.40;;;1.10;;
40967;SDS011;57377;45.130;6.038;2022-09-09T06:29:55;1.90;;;0.90;;
40967;SDS011;57377;45.130;6.038;2022-09-09T06:32:21;2.38;;;0.80;;
40967;SDS011;57377;45.130;6.038;2022-09-09T06:34:46;5.40;;;0.73;;
40967;SDS011;57377;45.130;6.038;2022-09-09T06:37:14;1.73;;;0.70;;
40967;SDS011;57377;45.130;6.038;2022-09-09T06:39:39;7.03;;;1.02;;
40967;SDS011;57377;45.130;6.038;2022-09-09T06:42:05;5.97;;;0.73;;
40967;SDS011;57377;45.130;6.038;2022-09-09T06:44:31;2.60;;;0.85;;
40967;SDS011;57377;45.130;6.038;2022-09-09T06:46:58;3.05;;;1.02;;
40967;SDS011;57377;45.130;6.038;2022-09-09T06:49:24;1.15;;;0.80;;
40967;SDS011;57377;45.130;6.038;2022-09-09T06:51:49;3.38;;;1.10;;
40967;SDS011;57377;45.130;6.038;2022-09-09T06:54:14;1.63;;;0.70;;
40967;SDS011;57377;45.130;6.038;2022-09-09T06:56:40;1.30;;;0.70;;
40967;SDS011;57377;45.130;6.038;2022-09-09T06:59:08;1.25;;;0.73;;
40967;SDS011;57377;45.130;6.038;2022-09-09T07:01:41;1.40;;;0.88;;
40967;SDS011;57377;45.130;6.038;2022-09-09T07:04:14;1.60;;;0.80;;
40967;SDS011;57377;45.130;6.038;2022-09-09T07:06:40;5.50;;;1.00;;
40967;SDS011;57377;45.130;6.038;2022-09-09T07:09:12;1.85;;;0.90;;
40967;SDS011;57377;45.130;6.038;2022-09-09T07:11:43;25.17;;;1.52;;
40967;SDS011;57377;45.130;6.038;2022-09-09T07:14:10;6.03;;;2.08;;
40967;SDS011;57377;45.130;6.038;2022-09-09T07:16:38;6.20;;;0.80;;
40967;SDS011;57377;45.130;6.038;2022-09-09T07:19:05;3.70;;;1.00;;
40967;SDS011;57377;45.130;6.038;2022-09-09T07:21:31;3.95;;;1.02;;
40967;SDS011;57377;45.130;6.038;2022-09-09T07:23:58;3.08;;;0.90;;
40967;SDS011;57377;45.130;6.038;2022-09-09T07:26:25;4.43;;;0.95;;
40967;SDS011;57377;45.130;6.038;2022-09-09T07:28:53;9.88;;;0.82;;
40967;SDS011;57377;45.130;6.038;2022-09-09T07:31:22;2.38;;;0.88;;
40967;SDS011;57377;45.130;6.038;2022-09-09T07:33:51;2.75;;;0.90;;
40967;SDS011;57377;45.130;6.038;2022-09-09T07:36:18;1.05;;;0.50;;
40967;SDS011;57377;45.130;6.038;2022-09-09T07:38:55;1.60;;;0.83;;
40967;SDS011;57377;45.130;6.038;2022-09-09T07:41:24;2.90;;;0.60;;
40967;SDS011;57377;45.130;6.038;2022-09-09T07:43:50;2.13;;;0.88;;
40967;SDS011;57377;45.130;6.038;2022-09-09T07:46:19;0.80;;;0.60;;
40967;SDS011;57377;45.130;6.038;2022-09-09T07:48:46;2.50;;;1.00;;
40967;SDS011;57377;45.130;6.038;2022-09-09T07:51:17;3.05;;;0.80;;
40967;SDS011;57377;45.130;6.038;2022-09-09T07:53:47;1.30;;;0.80;;
40967;SDS011;57377;45.130;6.038;2022-09-09T07:56:14;1.83;;;0.75;;
40967;SDS011;57377;45.130;6.038;2022-09-09T07:58:47;2.97;;;0.90;;
40967;SDS011;57377;45.130;6.038;2022-09-09T08:01:14;2.15;;;0.70;;
40967;SDS011;57377;45.130;6.038;2022-09-09T08:03:47;5.35;;;0.63;;
40967;SDS011;57377;45.130;6.038;2022-09-09T08:06:20;0.63;;;0.55;;
40967;SDS011;57377;45.130;6.038;2022-09-09T08:08:50;1.15;;;0.60;;
40967;SDS011;57377;45.130;6.038;2022-09-09T08:11:16;0.77;;;0.57;;
40967;SDS011;57377;45.130;6.038;2022-09-09T08:13:42;0.63;;;0.60;;
40967;SDS011;57377;45.130;6.038;2022-09-09T08:16:13;2.97;;;0.60;;
40967;SDS011;57377;45.130;6.038;2022-09-09T08:18:41;1.08;;;0.60;;
40967;SDS011;57377;45.130;6.038;2022-09-09T08:23:34;5.22;;;0.60;;
40967;SDS011;57377;45.130;6.038;2022-09-09T08:26:05;5.25;;;0.93;;
40967;SDS011;57377;45.130;6.038;2022-09-09T08:28:32;1.15;;;0.70;;
40967;SDS011;57377;45.130;6.038;2022-09-09T08:31:07;4.57;;;0.90;;
40967;SDS011;57377;45.130;6.038;2022-09-09T08:33:35;3.50;;;1.25;;
40967;SDS011;57377;45.130;6.038;2022-09-09T08:36:03;2.55;;;0.65;;
40967;SDS011;57377;45.130;6.038;2022-09-09T08:38:29;1.73;;;0.82;;
40967;SDS011;57377;45.130;6.038;2022-09-09T08:40:55;6.78;;;1.00;;
40967;SDS011;57377;45.130;6.038;2022-09-09T08:43:32;3.42;;;0.85;;
40967;SDS011;57377;45.130;6.038;2022-09-09T08:46:09;3.28;;;0.80;;
40967;SDS011;57377;45.130;6.038;2022-09-09T08:48:56;2.75;;;0.90;;
40967;SDS011;57377;45.130;6.038;2022-09-09T08:51:27;1.25;;;0.80;;
40967;SDS011;57377;45.130;6.038;2022-09-09T08:53:55;1.70;;;0.90;;
40967;SDS011;57377;45.130;6.038;2022-09-09T08:56:25;5.40;;;0.68;;
40967;SDS011;57377;45.130;6.038;2022-09-09T08:58:53;1.33;;;0.73;;
40967;SDS011;57377;45.130;6.038;2022-09-09T09:01:29;2.03;;;0.88;;
40967;SDS011;57377;45.130;6.038;2022-09-09T09:12:46;2.40;;;0.85;;
40967;SDS011;57377;45.130;6.038;2022-09-09T09:15:20;2.17;;;0.90;;
40967;SDS011;57377;45.130;6.038;2022-09-09T09:17:49;4.03;;;0.80;;
40967;SDS011;57377;45.130;6.038;2022-09-09T09:20:15;1.73;;;0.60;;
40967;SDS011;57377;45.130;6.038;2022-09-09T09:28:00;2.78;;;0.70;;
40967;SDS011;57377;45.130;6.038;2022-09-09T09:30:26;1.02;;;0.73;;
40967;SDS011;57377;45.130;6.038;2022-09-09T09:33:05;3.60;;;1.00;;
40967;SDS011;57377;45.130;6.038;2022-09-09T09:35:39;2.88;;;0.85;;
40967;SDS011;57377;45.130;6.038;2022-09-09T09:38:21;4.50;;;1.20;;
40967;SDS011;57377;45.130;6.038;2022-09-09T09:40:49;2.17;;;1.33;;
40967;SDS011;57377;45.130;6.038;2022-09-09T09:43:18;1.05;;;0.63;;
40967;SDS011;57377;45.130;6.038;2022-09-09T09:45:50;2.22;;;1.10;;
40967;SDS011;57377;45.130;6.038;2022-09-09T09:48:15;2.58;;;0.85;;
40967;SDS011;57377;45.130;6.038;2022-09-09T09:50:48;5.10;;;0.85;;
40967;SDS011;57377;45.130;6.038;2022-09-09T09:53:21;4.78;;;1.05;;
40967;SDS011;57377;45.130;6.038;2022-09-09T09:55:55;2.13;;;0.82;;
40967;SDS011;57377;45.130;6.038;2022-09-09T09:58:22;3.60;;;1.00;;
40967;SDS011;57377;45.130;6.038;2022-09-09T10:00:52;1.20;;;0.88;;
40967;SDS011;57377;45.130;6.038;2022-09-09T10:03:22;4.03;;;1.00;;
40967;SDS011;57377;45.130;6.038;2022-09-09T10:05:49;2.15;;;0.80;;
40967;SDS011;57377;45.130;6.038;2022-09-09T10:08:16;2.05;;;0.93;;
40967;SDS011;57377;45.130;6.038;2022-09-09T10:13:33;3.72;;;1.25;;
40967;SDS011;57377;45.130;6.038;2022-09-09T10:16:24;2.00;;;1.05;;
40967;SDS011;57377;45.130;6.038;2022-09-09T10:24:09;3.13;;;1.10;;
40967;SDS011;57377;45.130;6.038;2022-09-09T10:40:26;3.72;;;1.50;;
40967;SDS011;57377;45.130;6.038;2022-09-09T10:43:07;1.92;;;0.80;;
40967;SDS011;57377;45.130;6.038;2022-09-09T10:53:58;1.42;;;1.00;;
40967;SDS011;57377;45.130;6.038;2022-09-09T10:56:34;1.55;;;0.70;;
40967;SDS011;57377;45.130;6.038;2022-09-09T10:59:09;5.60;;;1.00;;
40967;SDS011;57377;45.130;6.038;2022-09-09T11:01:41;1.10;;;0.70;;
40967;SDS011;57377;45.130;6.038;2022-09-09T11:04:17;4.13;;;0.60;;
40967;SDS011;57377;45.130;6.038;2022-09-09T11:06:48;3.67;;;0.70;;
40967;SDS011;57377;45.130;6.038;2022-09-09T11:09:18;6.35;;;0.70;;
40967;SDS011;57377;45.130;6.038;2022-09-09T11:11:52;5.25;;;0.60;;
40967;SDS011;57377;45.130;6.038;2022-09-09T11:14:26;1.02;;;0.40;;
40967;SDS011;57377;45.130;6.038;2022-09-09T11:16:59;1.50;;;0.70;;
40967;SDS011;57377;45.130;6.038;2022-09-09T11:19:40;0.88;;;0.50;;
40967;SDS011;57377;45.130;6.038;2022-09-09T11:22:08;1.23;;;0.57;;
40967;SDS011;57377;45.130;6.038;2022-09-09T11:24:47;2.22;;;0.55;;
40967;SDS011;57377;45.130;6.038;2022-09-09T11:32:40;0.55;;;0.40;;
40967;SDS011;57377;45.130;6.038;2022-09-09T11:35:19;1.45;;;0.50;;
40967;SDS011;57377;45.130;6.038;2022-09-09T11:40:30;0.70;;;0.43;;
40967;SDS011;57377;45.130;6.038;2022-09-09T11:43:01;1.45;;;0.50;;
40967;SDS011;57377;45.130;6.038;2022-09-09T11:48:38;0.57;;;0.47;;
40967;SDS011;57377;45.130;6.038;2022-09-09T11:51:10;0.70;;;0.43;;
40967;SDS011;57377;45.130;6.038;2022-09-09T11:53:58;0.63;;;0.50;;
40967;SDS011;57377;45.130;6.038;2022-09-09T11:59:50;1.02;;;0.40;;
40967;SDS011;57377;45.130;6.038;2022-09-09T12:07:58;3.97;;;0.50;;
40967;SDS011;57377;45.130;6.038;2022-09-09T12:10:39;1.25;;;0.35;;
40967;SDS011;57377;45.130;6.038;2022-09-09T12:13:18;0.20;;;0.20;;
40967;SDS011;57377;45.130;6.038;2022-09-09T12:15:49;0.70;;;0.20;;
40967;SDS011;57377;45.130;6.038;2022-09-09T12:19:20;0.30;;;0.20;;
40967;SDS011;57377;45.130;6.038;2022-09-09T12:22:07;1.33;;;0.40;;
40967;SDS011;57377;45.130;6.038;2022-09-09T12:27:36;0.98;;;0.30;;
40967;SDS011;57377;45.130;6.038;2022-09-09T12:33:17;0.93;;;0.30;;
40967;SDS011;57377;45.130;6.038;2022-09-09T12:36:02;0.40;;;0.35;;
40967;SDS011;57377;45.130;6.038;2022-09-09T12:38:34;1.33;;;0.60;;
40967;SDS011;57377;45.130;6.038;2022-09-09T12:41:21;3.25;;;0.57;;
40967;SDS011;57377;45.130;6.038;2022-09-09T12:43:50;1.13;;;0.40;;
40967;SDS011;57377;45.130;6.038;2022-09-09T12:46:38;1.17;;;0.70;;
40967;SDS011;57377;45.130;6.038;2022-09-09T12:49:17;0.82;;;0.35;;
40967;SDS011;57377;45.130;6.038;2022-09-09T12:51:54;1.10;;;0.47;;
40967;SDS011;57377;45.130;6.038;2022-09-09T12:54:25;2.60;;;0.63;;
40967;SDS011;57377;45.130;6.038;2022-09-09T12:56:51;1.02;;;0.47;;
40967;SDS011;57377;45.130;6.038;2022-09-09T12:59:36;1.58;;;0.45;;
40967;SDS011;57377;45.130;6.038;2022-09-09T13:02:21;1.02;;;0.50;;
40967;SDS011;57377;45.130;6.038;2022-09-09T13:08:22;1.33;;;0.50;;
40967;SDS011;57377;45.130;6.038;2022-09-09T13:10:49;2.92;;;0.30;;
40967;SDS011;57377;45.130;6.038;2022-09-09T13:16:28;1.38;;;0.38;;
40967;SDS011;57377;45.130;6.038;2022-09-09T13:21:58;0.60;;;0.30;;
40967;SDS011;57377;45.130;6.038;2022-09-09T13:24:26;0.15;;;0.15;;
40967;SDS011;57377;45.130;6.038;2022-09-09T13:27:25;0.57;;;0.40;;
40967;SDS011;57377;45.130;6.038;2022-09-09T13:29:53;0.22;;;0.20;;
40967;SDS011;57377;45.130;6.038;2022-09-09T13:32:25;0.77;;;0.40;;
40967;SDS011;57377;45.130;6.038;2022-09-09T13:34:59;0.50;;;0.30;;
40967;SDS011;57377;45.130;6.038;2022-09-09T13:37:33;0.70;;;0.28;;
40967;SDS011;57377;45.130;6.038;2022-09-09T13:40:03;1.40;;;0.40;;
40967;SDS011;57377;45.130;6.038;2022-09-09T13:42:31;0.50;;;0.30;;
40967;SDS011;57377;45.130;6.038;2022-09-09T13:45:02;1.42;;;0.30;;
40967;SDS011;57377;45.130;6.038;2022-09-09T13:47:35;0.20;;;0.20;;
40967;SDS011;57377;45.130;6.038;2022-09-09T13:52:46;1.40;;;0.30;;
40967;SDS011;57377;45.130;6.038;2022-09-09T13:55:23;2.03;;;0.47;;
40967;SDS011;57377;45.130;6.038;2022-09-09T13:58:27;0.40;;;0.40;;
40967;SDS011;57377;45.130;6.038;2022-09-09T14:04:02;1.27;;;0.30;;
40967;SDS011;57377;45.130;6.038;2022-09-09T14:06:38;5.63;;;0.50;;
40967;SDS011;57377;45.130;6.038;2022-09-09T14:09:10;0.85;;;0.22;;
40967;SDS011;57377;45.130;6.038;2022-09-09T14:12:05;1.07;;;0.30;;
40967;SDS011;57377;45.130;6.038;2022-09-09T14:14:53;0.25;;;0.25;;
40967;SDS011;57377;45.130;6.038;2022-09-09T14:17:20;0.75;;;0.45;;
40967;SDS011;57377;45.130;6.038;2022-09-09T14:19:59;2.90;;;0.32;;
40967;SDS011;57377;45.130;6.038;2022-09-09T14:22:25;4.78;;;0.30;;
40967;SDS011;57377;45.130;6.038;2022-09-09T14:24:53;7.43;;;0.60;;
40967;SDS011;57377;45.130;6.038;2022-09-09T14:28:04;4.18;;;0.50;;
40967;SDS011;57377;45.130;6.038;2022-09-09T14:30:58;0.57;;;0.47;;
40967;SDS011;57377;45.130;6.038;2022-09-09T14:33:50;1.65;;;0.50;;
40967;SDS011;57377;45.130;6.038;2022-09-09T14:36:57;2.42;;;0.50;;
40967;SDS011;57377;45.130;6.038;2022-09-09T14:39:46;0.95;;;0.40;;
40967;SDS011;57377;45.130;6.038;2022-09-09T14:45:24;0.52;;;0.28;;
40967;SDS011;57377;45.130;6.038;2022-09-09T14:48:04;1.45;;;0.30;;
40967;SDS011;57377;45.130;6.038;2022-09-09T14:50:47;2.70;;;0.30;;
40967;SDS011;57377;45.130;6.038;2022-09-09T14:53:42;0.63;;;0.30;;
40967;SDS011;57377;45.130;6.038;2022-09-09T14:56:27;1.25;;;0.35;;
40967;SDS011;57377;45.130;6.038;2022-09-09T14:59:28;1.60;;;0.30;;
40967;SDS011;57377;45.130;6.038;2022-09-09T15:01:56;2.38;;;0.50;;
40967;SDS011;57377;45.130;6.038;2022-09-09T15:10:16;0.70;;;0.13;;
40967;SDS011;57377;45.130;6.038;2022-09-09T15:12:52;1.25;;;0.40;;
40967;SDS011;57377;45.130;6.038;2022-09-09T15:15:21;1.90;;;0.43;;
40967;SDS011;57377;45.130;6.038;2022-09-09T15:17:51;0.90;;;0.45;;
40967;SDS011;57377;45.130;6.038;2022-09-09T15:20:17;1.75;;;0.30;;
40967;SDS011;57377;45.130;6.038;2022-09-09T15:22:42;1.15;;;0.30;;
40967;SDS011;57377;45.130;6.038;2022-09-09T15:25:18;0.50;;;0.30;;
40967;SDS011;57377;45.130;6.038;2022-09-09T15:27:43;4.65;;;0.50;;
40967;SDS011;57377;45.130;6.038;2022-09-09T15:30:27;0.95;;;0.28;;
40967;SDS011;57377;45.130;6.038;2022-09-09T15:32:52;1.65;;;0.43;;
40967;SDS011;57377;45.130;6.038;2022-09-09T15:35:18;1.42;;;0.40;;
40967;SDS011;57377;45.130;6.038;2022-09-09T15:37:43;1.45;;;0.40;;
40967;SDS011;57377;45.130;6.038;2022-09-09T15:40:10;0.50;;;0.30;;
40967;SDS011;57377;45.130;6.038;2022-09-09T15:42:35;0.80;;;0.30;;
40967;SDS011;57377;45.130;6.038;2022-09-09T15:45:03;0.65;;;0.40;;
40967;SDS011;57377;45.130;6.038;2022-09-09T15:47:30;1.55;;;0.38;;
40967;SDS011;57377;45.130;6.038;2022-09-09T15:49:57;2.63;;;0.55;;
40967;SDS011;57377;45.130;6.038;2022-09-09T15:52:22;0.32;;;0.30;;
40967;SDS011;57377;45.130;6.038;2022-09-09T15:54:48;1.30;;;0.38;;
40967;SDS011;57377;45.130;6.038;2022-09-09T15:57:14;4.93;;;0.60;;
40967;SDS011;57377;45.130;6.038;2022-09-09T15:59:39;2.47;;;0.47;;
40967;SDS011;57377;45.130;6.038;2022-09-09T16:02:05;2.63;;;0.60;;
40967;SDS011;57377;45.130;6.038;2022-09-09T16:04:31;0.20;;;0.20;;
40967;SDS011;57377;45.130;6.038;2022-09-09T16:07:00;2.28;;;0.45;;
40967;SDS011;57377;45.130;6.038;2022-09-09T16:09:28;1.60;;;0.40;;
40967;SDS011;57377;45.130;6.038;2022-09-09T16:11:58;0.37;;;0.30;;
40967;SDS011;57377;45.130;6.038;2022-09-09T16:14:25;2.70;;;0.35;;
40967;SDS011;57377;45.130;6.038;2022-09-09T16:16:54;4.47;;;0.30;;
40967;SDS011;57377;45.130;6.038;2022-09-09T16:19:22;1.40;;;0.28;;
40967;SDS011;57377;45.130;6.038;2022-09-09T16:21:48;3.30;;;0.47;;
40967;SDS011;57377;45.130;6.038;2022-09-09T16:24:16;2.50;;;0.50;;
40967;SDS011;57377;45.130;6.038;2022-09-09T16:26:44;0.95;;;0.40;;
40967;SDS011;57377;45.130;6.038;2022-09-09T16:29:15;0.90;;;0.38;;
40967;SDS011;57377;45.130;6.038;2022-09-09T16:31:42;0.88;;;0.40;;
40967;SDS011;57377;45.130;6.038;2022-09-09T16:34:10;1.00;;;0.50;;
40967;SDS011;57377;45.130;6.038;2022-09-09T16:37:05;1.05;;;0.30;;
40967;SDS011;57377;45.130;6.038;2022-09-09T16:39:53;0.63;;;0.30;;
40967;SDS011;57377;45.130;6.038;2022-09-09T16:42:21;4.38;;;0.52;;
40967;SDS011;57377;45.130;6.038;2022-09-09T16:44:52;1.85;;;0.30;;
40967;SDS011;57377;45.130;6.038;2022-09-09T16:47:34;1.02;;;0.38;;
40967;SDS011;57377;45.130;6.038;2022-09-09T16:50:05;1.75;;;0.20;;
40967;SDS011;57377;45.130;6.038;2022-09-09T16:52:31;0.75;;;0.30;;
40967;SDS011;57377;45.130;6.038;2022-09-09T16:54:59;2.95;;;0.40;;
40967;SDS011;57377;45.130;6.038;2022-09-09T16:57:24;1.40;;;0.50;;
40967;SDS011;57377;45.130;6.038;2022-09-09T16:59:58;1.55;;;0.65;;
40967;SDS011;57377;45.130;6.038;2022-09-09T17:02:24;1.60;;;0.60;;
40967;SDS011;57377;45.130;6.038;2022-09-09T17:04:50;1.45;;;0.30;;
40967;SDS011;57377;45.130;6.038;2022-09-09T17:07:16;1.60;;;0.40;;
40967;SDS011;57377;45.130;6.038;2022-09-09T17:09:41;1.23;;;0.35;;
40967;SDS011;57377;45.130;6.038;2022-09-09T17:12:07;1.90;;;0.40;;
40967;SDS011;57377;45.130;6.038;2022-09-09T17:14:33;1.52;;;0.45;;
40967;SDS011;57377;45.130;6.038;2022-09-09T17:16:59;9.50;;;0.80;;
40967;SDS011;57377;45.130;6.038;2022-09-09T17:19:25;2.00;;;0.70;;
40967;SDS011;57377;45.130;6.038;2022-09-09T17:21:51;1.02;;;0.38;;
40967;SDS011;57377;45.130;6.038;2022-09-09T17:24:28;2.50;;;0.50;;
40967;SDS011;57377;45.130;6.038;2022-09-09T17:37:08;1.02;;;0.60;;
40967;SDS011;57377;45.130;6.038;2022-09-09T17:39:39;8.95;;;0.70;;
40967;SDS011;57377;45.130;6.038;2022-09-09T17:52:58;0.95;;;0.35;;
40967;SDS011;57377;45.130;6.038;2022-09-09T17:55:40;4.20;;;0.50;;
40967;SDS011;57377;45.130;6.038;2022-09-09T18:01:58;19.23;;;0.82;;
40967;SDS011;57377;45.130;6.038;2022-09-09T18:04:26;1.50;;;0.50;;
40967;SDS011;57377;45.130;6.038;2022-09-09T18:06:52;0.85;;;0.40;;
40967;SDS011;57377;45.130;6.038;2022-09-09T18:09:22;3.10;;;0.80;;